Aviation Digital Data Service (ADDS)

Output produced by TAFs form (0107 UTC 01 April 2015)
found at http://aviationweather.gov/adds/tafs/
 
KTCS 312336Z 0100/0124 35011KT P6SM SCT120 BKN250 
     FM010300 30009KT P6SM FEW150 SCT250 
     FM011200 30009KT P6SM SCT250